Time;durP1;ratioP1;P1;durP2;ratioP2;P2;SDS_P1;SDS_P2;PMS_P1;PMS_P2;Temp;Humidity;BMP_temperature;BMP_pressure;BME280_temperature;BME280_humidity;BME280_pressure;Samples;Min_cycle;Max_cycle;Signal;HPM_P1;HPM_P2
2022/03/21 00:00:57;;;;;;;;;;;14.70;31.70;;;;;;5096930;28;20323;-91
2022/03/21 00:03:25;;;;;;;;;;;14.70;31.70;;;;;;5064739;28;19928;-91
2022/03/21 00:05:51;;;;;;;;;;;14.70;31.70;;;;;;5084393;28;19995;-91
2022/03/21 00:08:18;;;;;;;;;;;14.70;31.70;;;;;;5083121;28;19980;-91
2022/03/21 00:10:45;;;;;;;;;;;14.70;31.70;;;;;;5097516;28;19919;-92
2022/03/21 00:13:14;;;;;;;;;;;14.60;31.70;;;;;;5097841;28;19916;-91
2022/03/21 00:15:40;;;;;;;;;;;14.50;31.70;;;;;;5083386;28;19919;-90
2022/03/21 00:18:06;;;;;;;;;;;14.40;31.80;;;;;;5065407;28;20401;-89
2022/03/21 00:20:31;;;;;;;;;;;14.30;31.90;;;;;;5064939;28;19921;-91
2022/03/21 00:22:57;;;;;;;;;;;14.10;32.00;;;;;;5100450;28;19955;-89
2022/03/21 00:25:22;;;;;;;;;;;14.00;32.00;;;;;;5066389;28;19912;-91
2022/03/21 00:27:48;;;;;;;;;;;13.80;32.10;;;;;;5065129;28;19916;-90
2022/03/21 00:30:15;;;;;;;;;;;13.80;32.20;;;;;;5098995;28;19923;-91
2022/03/21 00:32:41;;;;;;;;;;;13.70;32.30;;;;;;5098735;28;19924;-91
2022/03/21 00:35:07;;;;;;;;;;;13.70;32.40;;;;;;5083044;28;20003;-90
2022/03/21 00:37:34;;;;;;;;;;;13.70;32.50;;;;;;5098602;28;20395;-90
2022/03/21 00:39:59;;;;;;;;;;;13.70;32.60;;;;;;5098904;28;19942;-90
2022/03/21 00:42:26;;;;;;;;;;;13.60;32.60;;;;;;5066564;28;20364;-91
2022/03/21 00:44:51;;;;;;;;;;;13.60;32.70;;;;;;5100496;28;19913;-91
2022/03/21 00:47:17;;;;;;;;;;;13.60;32.70;;;;;;5064920;28;19919;-91
2022/03/21 00:49:44;;;;;;;;;;;13.50;32.70;;;;;;5087778;28;19920;-91
2022/03/21 00:52:09;;;;;;;;;;;13.50;32.70;;;;;;5095495;28;20279;-90
2022/03/21 00:54:35;;;;;;;;;;;13.50;32.80;;;;;;5063233;28;19917;-91
2022/03/21 00:57:00;;;;;;;;;;;13.40;32.90;;;;;;5063062;28;19982;-90
2022/03/21 00:59:26;;;;;;;;;;;13.30;32.90;;;;;;5062804;28;19928;-90
2022/03/21 01:01:51;;;;;;;;;;;13.30;33.00;;;;;;5083285;28;19901;-91
2022/03/21 01:04:17;;;;;;;;;;;13.30;33.00;;;;;;5065569;28;19917;-90
2022/03/21 01:06:42;;;;;;;;;;;13.20;33.00;;;;;;5082151;28;20414;-91
2022/03/21 01:09:10;;;;;;;;;;;13.10;33.10;;;;;;5048442;28;19916;-89
2022/03/21 01:11:35;;;;;;;;;;;13.10;33.10;;;;;;5065693;28;19913;-91
2022/03/21 01:14:01;;;;;;;;;;;13.00;33.20;;;;;;5066684;28;19917;-90
2022/03/21 01:16:26;;;;;;;;;;;12.90;33.20;;;;;;5064610;28;19918;-91
2022/03/21 01:18:52;;;;;;;;;;;12.80;33.30;;;;;;5064340;28;19921;-90
2022/03/21 01:21:17;;;;;;;;;;;12.80;33.30;;;;;;5064926;28;19955;-90
2022/03/21 01:23:43;;;;;;;;;;;12.70;33.40;;;;;;5084575;28;20368;-90
2022/03/21 01:26:08;;;;;;;;;;;12.70;33.50;;;;;;5063033;28;19912;-91
2022/03/21 01:28:33;;;;;;;;;;;12.60;33.50;;;;;;5062772;28;20275;-90
2022/03/21 01:30:59;;;;;;;;;;;12.50;33.60;;;;;;5062233;28;20300;-90
2022/03/21 01:33:24;;;;;;;;;;;12.50;33.60;;;;;;5063165;28;20011;-90
2022/03/21 01:35:50;;;;;;;;;;;12.40;33.60;;;;;;5064606;28;19958;-90
2022/03/21 01:38:15;;;;;;;;;;;12.30;33.70;;;;;;5081270;28;19924;-91
2022/03/21 01:40:41;;;;;;;;;;;12.30;33.80;;;;;;5081274;28;19928;-90
2022/03/21 01:43:10;;;;;;;;;;;12.20;33.80;;;;;;5063402;28;20347;-90
2022/03/21 01:45:37;;;;;;;;;;;12.10;33.90;;;;;;5080648;28;19913;-90
2022/03/21 01:48:02;;;;;;;;;;;12.10;34.10;;;;;;5063348;28;20372;-90
2022/03/21 01:50:28;;;;;;;;;;;12.00;34.10;;;;;;5063151;28;19916;-90
2022/03/21 01:55:43;;;;;;;;;;;12.00;34.20;;;;;;5062258;28;20296;-90
2022/03/21 01:55:48;;;;;;;;;;;11.90;34.20;;;;;;5080685;28;19913;-90
2022/03/21 01:58:14;;;;;;;;;;;11.90;34.30;;;;;;5097021;28;19944;-89
2022/03/21 02:00:43;;;;;;;;;;;11.80;34.40;;;;;;5095718;28;20348;-90
2022/03/21 02:03:08;;;;;;;;;;;11.80;34.40;;;;;;5080132;28;19939;-91
2022/03/21 02:05:36;;;;;;;;;;;11.80;34.50;;;;;;5062485;28;20018;-90
2022/03/21 02:08:01;;;;;;;;;;;11.70;34.60;;;;;;5096490;28;19913;-90
2022/03/21 02:10:27;;;;;;;;;;;11.70;34.70;;;;;;5080863;28;19916;-91
2022/03/21 02:12:53;;;;;;;;;;;11.70;34.80;;;;;;5096465;28;19913;-91
2022/03/21 02:15:18;;;;;;;;;;;11.70;34.80;;;;;;5080285;28;20407;-90
2022/03/21 02:17:45;;;;;;;;;;;11.70;34.80;;;;;;5095893;28;19913;-89
2022/03/21 02:20:11;;;;;;;;;;;11.70;34.80;;;;;;5112386;28;19920;-91
2022/03/21 02:22:45;;;;;;;;;;;11.70;34.80;;;;;;5082691;28;19912;-91
2022/03/21 02:25:17;;;;;;;;;;;11.70;34.80;;;;;;5081639;28;19912;-90
2022/03/21 02:27:43;;;;;;;;;;;11.70;34.90;;;;;;5099728;28;19908;-89
2022/03/21 02:30:09;;;;;;;;;;;11.70;34.90;;;;;;5100245;28;19994;-90
2022/03/21 02:32:35;;;;;;;;;;;11.70;35.00;;;;;;5082427;28;20327;-90
2022/03/21 02:35:01;;;;;;;;;;;11.70;35.00;;;;;;5082729;28;20261;-89
2022/03/21 02:37:27;;;;;;;;;;;11.70;34.90;;;;;;5100096;28;20386;-91
2022/03/21 02:39:54;;;;;;;;;;;11.70;34.90;;;;;;5082512;28;19956;-91
2022/03/21 02:42:19;;;;;;;;;;;11.70;34.90;;;;;;5082479;28;19916;-88
2022/03/21 02:44:45;;;;;;;;;;;11.70;34.90;;;;;;5082066;28;19919;-89
2022/03/21 02:47:10;;;;;;;;;;;11.70;34.90;;;;;;5100194;28;19916;-89
2022/03/21 02:49:36;;;;;;;;;;;11.60;34.90;;;;;;5099103;28;20016;-90
2022/03/21 02:52:06;;;;;;;;;;;11.60;34.90;;;;;;5082126;28;19923;-89
2022/03/21 02:54:32;;;;;;;;;;;11.50;34.90;;;;;;5081948;28;19931;-89
2022/03/21 02:56:58;;;;;;;;;;;11.50;34.90;;;;;;5100348;28;19962;-90
2022/03/21 02:59:24;;;;;;;;;;;11.40;34.90;;;;;;5081484;28;19915;-90
2022/03/21 03:01:53;;;;;;;;;;;11.30;34.90;;;;;;5081955;28;19920;-90
2022/03/21 03:04:20;;;;;;;;;;;11.30;35.10;;;;;;5081233;28;19908;-89
2022/03/21 03:06:45;;;;;;;;;;;11.20;35.10;;;;;;5098612;28;19920;-90
2022/03/21 03:09:10;;;;;;;;;;;11.20;35.20;;;;;;5081275;28;20354;-89
2022/03/21 03:11:39;;;;;;;;;;;11.10;35.20;;;;;;5099488;28;19938;-90
2022/03/21 03:14:05;;;;;;;;;;;11.10;35.20;;;;;;5081657;28;19969;-90
2022/03/21 03:16:31;;;;;;;;;;;11.00;35.20;;;;;;5080416;28;20356;-88
2022/03/21 03:18:56;;;;;;;;;;;10.90;35.40;;;;;;5081314;28;19912;-90
2022/03/21 03:21:24;;;;;;;;;;;10.90;35.40;;;;;;5100037;28;19979;-89
2022/03/21 03:23:50;;;;;;;;;;;10.80;35.50;;;;;;5080157;28;19908;-89
2022/03/21 03:26:16;;;;;;;;;;;10.80;35.50;;;;;;5081008;28;20038;-89
2022/03/21 03:28:42;;;;;;;;;;;10.70;35.60;;;;;;5080923;28;19943;-90
2022/03/21 03:31:07;;;;;;;;;;;10.70;35.70;;;;;;5082460;28;19951;-90
2022/03/21 03:33:33;;;;;;;;;;;10.70;35.70;;;;;;5099589;28;19908;-90
2022/03/21 03:35:58;;;;;;;;;;;10.70;35.90;;;;;;5099128;28;19916;-90
2022/03/21 03:38:24;;;;;;;;;;;10.60;36.10;;;;;;5081229;28;20272;-90
2022/03/21 03:40:50;;;;;;;;;;;10.70;36.10;;;;;;5099839;28;19974;-89
2022/03/21 03:43:15;;;;;;;;;;;10.60;36.10;;;;;;5099926;28;19915;-91
2022/03/21 03:45:41;;;;;;;;;;;10.60;36.10;;;;;;5076978;28;20053;-90
2022/03/21 03:48:08;;;;;;;;;;;10.60;36.10;;;;;;5072545;28;19934;-89
2022/03/21 03:50:33;;;;;;;;;;;10.60;36.10;;;;;;5060937;28;19924;-89
2022/03/21 03:52:59;;;;;;;;;;;10.60;36.20;;;;;;5079017;28;20336;-89
2022/03/21 03:55:26;;;;;;;;;;;10.60;36.20;;;;;;5077959;28;19916;-89
2022/03/21 03:57:52;;;;;;;;;;;10.50;36.30;;;;;;5078770;28;19912;-91
2022/03/21 04:00:17;;;;;;;;;;;10.50;36.30;;;;;;5077414;28;20360;-89
2022/03/21 04:05:27;;;;;;;;;;;10.50;36.40;;;;;;5080337;28;20307;-90
2022/03/21 04:07:53;;;;;;;;;;;10.40;36.50;;;;;;5068206;28;19912;-90
2022/03/21 04:10:22;;;;;;;;;;;10.40;36.40;;;;;;5078626;28;19912;-91
2022/03/21 04:12:48;;;;;;;;;;;10.40;36.50;;;;;;5078625;28;19962;-90
2022/03/21 04:15:15;;;;;;;;;;;10.30;36.50;;;;;;5072564;28;20271;-90
2022/03/21 04:17:40;;;;;;;;;;;10.30;36.50;;;;;;5078618;28;20290;-91
2022/03/21 04:20:06;;;;;;;;;;;10.30;36.60;;;;;;5095283;28;19961;-90
2022/03/21 04:22:33;;;;;;;;;;;10.20;36.60;;;;;;5078041;28;20003;-90
2022/03/21 04:24:58;;;;;;;;;;;10.20;36.60;;;;;;5059697;28;19912;-89
2022/03/21 04:27:24;;;;;;;;;;;10.10;36.50;;;;;;5094457;28;19917;-89
2022/03/21 04:29:49;;;;;;;;;;;10.10;36.40;;;;;;5077454;28;19990;-91
2022/03/21 04:32:15;;;;;;;;;;;10.00;36.50;;;;;;5093255;28;19920;-90
2022/03/21 04:34:40;;;;;;;;;;;10.00;36.50;;;;;;5078681;28;20256;-90
2022/03/21 04:37:06;;;;;;;;;;;10.00;36.50;;;;;;5079736;28;19923;-90
2022/03/21 04:39:31;;;;;;;;;;;9.90;36.60;;;;;;5060807;28;19939;-90
2022/03/21 04:41:58;;;;;;;;;;;9.80;36.60;;;;;;5093665;28;20045;-90
2022/03/21 04:44:23;;;;;;;;;;;9.80;36.60;;;;;;5078811;28;19909;-89
2022/03/21 04:46:49;;;;;;;;;;;9.80;36.60;;;;;;5061265;28;19924;-90
2022/03/21 04:49:14;;;;;;;;;;;9.80;36.70;;;;;;5063932;28;19916;-89
2022/03/21 04:51:40;;;;;;;;;;;9.70;36.80;;;;;;5096810;28;20007;-90
2022/03/21 04:54:05;;;;;;;;;;;9.70;37.00;;;;;;5063503;28;19912;-90
2022/03/21 04:56:31;;;;;;;;;;;9.70;37.10;;;;;;5063545;28;19900;-90
2022/03/21 04:58:56;;;;;;;;;;;9.60;37.30;;;;;;5062958;28;20287;-90
2022/03/21 05:01:21;;;;;;;;;;;9.60;37.50;;;;;;5080627;28;19979;-91
2022/03/21 05:03:47;;;;;;;;;;;9.60;37.60;;;;;;5097518;28;19913;-90
2022/03/21 05:06:14;;;;;;;;;;;9.60;37.70;;;;;;5096835;28;19921;-91
2022/03/21 05:08:40;;;;;;;;;;;9.60;37.70;;;;;;5062579;28;20003;-90
2022/03/21 05:11:05;;;;;;;;;;;9.70;37.60;;;;;;5081203;28;19960;-90
2022/03/21 05:13:30;;;;;;;;;;;9.70;37.70;;;;;;5082374;28;19923;-89
2022/03/21 05:15:57;;;;;;;;;;;9.70;37.70;;;;;;5082286;28;19917;-89
2022/03/21 05:18:22;;;;;;;;;;;9.70;37.70;;;;;;5077969;28;19912;-90
2022/03/21 05:20:48;;;;;;;;;;;9.70;37.70;;;;;;5081053;28;19931;-89
2022/03/21 05:31:26;;;;;;;;;;;9.60;37.90;;;;;;5101557;28;20374;-90
2022/03/21 05:36:36;;;;;;;;;;;9.60;37.80;;;;;;5101960;28;19934;-91
2022/03/21 05:39:02;;;;;;;;;;;9.60;37.90;;;;;;5101258;28;19916;-89
2022/03/21 05:41:27;;;;;;;;;;;9.60;37.80;;;;;;5082064;28;19920;-90
2022/03/21 05:43:53;;;;;;;;;;;9.60;37.80;;;;;;5061064;28;20323;-91
2022/03/21 05:46:19;;;;;;;;;;;9.50;37.90;;;;;;5061158;28;19917;-89
2022/03/21 05:49:02;;;;;;;;;;;9.60;37.90;;;;;;5080252;28;19912;-91
2022/03/21 05:51:32;;;;;;;;;;;9.60;37.90;;;;;;5079436;28;19921;-90
2022/03/21 05:54:00;;;;;;;;;;;9.60;38.10;;;;;;5095855;28;19919;-89
2022/03/21 05:56:27;;;;;;;;;;;9.70;38.20;;;;;;5074673;28;20141;-90
2022/03/21 05:58:53;;;;;;;;;;;9.80;38.20;;;;;;5074272;28;20028;-90
2022/03/21 06:01:22;;;;;;;;;;;9.80;38.30;;;;;;5058131;28;20284;-90
2022/03/21 06:03:54;;;;;;;;;;;9.90;38.30;;;;;;5081309;28;19913;-90
2022/03/21 06:06:21;;;;;;;;;;;10.00;38.30;;;;;;5080227;28;20276;-91
2022/03/21 06:08:47;;;;;;;;;;;10.10;38.30;;;;;;5062881;28;19912;-90
2022/03/21 06:11:13;;;;;;;;;;;10.20;38.40;;;;;;5097027;28;19916;-90
2022/03/21 06:13:40;;;;;;;;;;;10.40;38.50;;;;;;5063040;28;19969;-90
2022/03/21 06:16:21;;;;;;;;;;;10.60;38.60;;;;;;5061809;28;20338;-88
2022/03/21 06:18:46;;;;;;;;;;;10.70;38.60;;;;;;5066239;28;19904;-90
2022/03/21 06:21:12;;;;;;;;;;;11.00;38.50;;;;;;5080414;28;20296;-90
2022/03/21 06:23:37;;;;;;;;;;;11.20;38.50;;;;;;5065397;28;19912;-89
2022/03/21 06:26:19;;;;;;;;;;;11.50;38.30;;;;;;5060295;28;19916;-90
2022/03/21 06:28:54;;;;;;;;;;;11.70;38.20;;;;;;5062353;28;19912;-90
2022/03/21 06:31:20;;;;;;;;;;;12.00;38.10;;;;;;5079819;28;20403;-89
2022/03/21 06:33:45;;;;;;;;;;;12.30;38.00;;;;;;5061196;28;19917;-91
2022/03/21 06:36:11;;;;;;;;;;;12.70;38.00;;;;;;5079957;28;19917;-91
2022/03/21 06:38:37;;;;;;;;;;;13.00;37.80;;;;;;5061952;28;20412;-90
2022/03/21 06:41:05;;;;;;;;;;;13.30;37.40;;;;;;5079233;28;19921;-90
2022/03/21 06:43:30;;;;;;;;;;;13.70;37.30;;;;;;5061004;28;19912;-90
2022/03/21 06:45:56;;;;;;;;;;;14.00;37.10;;;;;;5095629;28;20376;-90
2022/03/21 06:48:23;;;;;;;;;;;14.40;36.90;;;;;;5076658;28;20273;-90
2022/03/21 06:50:49;;;;;;;;;;;14.80;36.70;;;;;;5039552;28;19920;-91
2022/03/21 06:53:15;;;;;;;;;;;15.20;36.40;;;;;;5059946;28;19917;-90
2022/03/21 06:55:42;;;;;;;;;;;15.60;35.80;;;;;;5058923;28;19909;-91
2022/03/21 06:58:11;;;;;;;;;;;15.90;35.40;;;;;;5042078;28;20319;-89
2022/03/21 07:00:40;;;;;;;;;;;16.30;35.10;;;;;;5060778;28;20017;-90
2022/03/21 07:03:06;;;;;;;;;;;16.70;34.80;;;;;;5065151;28;19943;-90
2022/03/21 07:05:32;;;;;;;;;;;17.00;34.20;;;;;;5078356;28;19900;-91
2022/03/21 07:07:57;;;;;;;;;;;17.40;34.00;;;;;;5077058;28;19921;-92
2022/03/21 07:10:23;;;;;;;;;;;17.80;33.50;;;;;;5078261;28;19977;-90
2022/03/21 07:12:53;;;;;;;;;;;18.10;32.60;;;;;;5060176;28;19940;-91
2022/03/21 07:15:19;;;;;;;;;;;18.40;32.20;;;;;;5070466;28;19987;-90
2022/03/21 07:17:44;;;;;;;;;;;18.70;31.40;;;;;;5059588;28;20009;-90
2022/03/21 07:20:11;;;;;;;;;;;19.00;30.60;;;;;;5077958;28;19916;-90
2022/03/21 07:22:36;;;;;;;;;;;19.20;29.70;;;;;;5060576;28;20010;-91
2022/03/21 07:25:02;;;;;;;;;;;19.50;29.20;;;;;;5060713;28;19959;-90
2022/03/21 07:27:27;;;;;;;;;;;19.80;29.50;;;;;;5061049;28;19979;-91
2022/03/21 07:29:53;;;;;;;;;;;20.10;29.10;;;;;;5060608;28;19919;-92
2022/03/21 07:32:18;;;;;;;;;;;20.40;28.40;;;;;;5060310;28;19913;-90
2022/03/21 07:34:44;;;;;;;;;;;20.70;28.20;;;;;;5061104;28;20360;-91
2022/03/21 07:37:09;;;;;;;;;;;21.00;28.30;;;;;;5044664;28;20703;-91
2022/03/21 07:39:37;;;;;;;;;;;21.40;28.00;;;;;;5059587;28;19927;-90
2022/03/21 07:42:03;;;;;;;;;;;21.70;26.90;;;;;;5060537;28;19916;-91
2022/03/21 07:47:22;;;;;;;;;;;22.00;25.30;;;;;;5079759;28;20594;-91
2022/03/21 07:49:49;;;;;;;;;;;22.20;24.90;;;;;;5061098;28;19923;-93
2022/03/21 07:52:17;;;;;;;;;;;22.30;25.00;;;;;;5063307;28;19926;-93
2022/03/21 07:54:43;;;;;;;;;;;22.50;25.20;;;;;;5068009;28;19920;-92
2022/03/21 07:57:08;;;;;;;;;;;22.80;24.90;;;;;;5094161;28;19955;-91
2022/03/21 07:59:34;;;;;;;;;;;23.20;24.60;;;;;;5075593;28;20433;-92
2022/03/21 08:01:59;;;;;;;;;;;23.40;24.10;;;;;;5059056;28;19936;-91
2022/03/21 08:04:25;;;;;;;;;;;23.70;23.90;;;;;;5109572;28;19924;-92
2022/03/21 08:06:57;;;;;;;;;;;24.00;23.60;;;;;;5072809;28;19939;-92
2022/03/21 08:09:24;;;;;;;;;;;24.20;23.30;;;;;;5040469;28;20399;-91
2022/03/21 08:11:50;;;;;;;;;;;24.50;23.30;;;;;;5040096;28;20015;-91
2022/03/21 08:14:15;;;;;;;;;;;24.70;22.90;;;;;;5040404;28;19983;-91
2022/03/21 08:16:41;;;;;;;;;;;25.00;22.80;;;;;;5039768;28;19909;-91
2022/03/21 08:19:06;;;;;;;;;;;25.20;22.40;;;;;;5057778;28;19921;-91
2022/03/21 08:21:32;;;;;;;;;;;25.40;21.80;;;;;;5041482;28;19956;-91
2022/03/21 08:23:57;;;;;;;;;;;25.50;21.60;;;;;;5044265;28;19916;-90
2022/03/21 08:26:23;;;;;;;;;;;25.60;21.30;;;;;;5044449;28;20376;-90
2022/03/21 08:28:48;;;;;;;;;;;25.70;21.20;;;;;;5044718;28;19917;-92
2022/03/21 08:31:14;;;;;;;;;;;25.80;20.70;;;;;;5063385;28;19913;-91
2022/03/21 08:33:40;;;;;;;;;;;25.80;20.10;;;;;;5062067;28;19917;-91
2022/03/21 08:36:06;;;;;;;;;;;25.90;20.50;;;;;;5043052;28;19916;-89
2022/03/21 08:38:31;;;;;;;;;;;26.10;20.60;;;;;;5062140;28;19913;-92
2022/03/21 08:40:58;;;;;;;;;;;26.30;20.60;;;;;;5044030;28;19935;-92
2022/03/21 08:43:24;;;;;;;;;;;26.60;20.00;;;;;;5044042;28;19920;-92
2022/03/21 08:45:49;;;;;;;;;;;26.70;19.90;;;;;;5044905;28;19972;-91
2022/03/21 08:48:15;;;;;;;;;;;26.80;19.70;;;;;;5044926;28;19931;-92
2022/03/21 08:50:40;;;;;;;;;;;26.90;19.40;;;;;;5062821;28;19917;-92
2022/03/21 08:53:07;;;;;;;;;;;27.20;19.80;;;;;;5063670;28;20026;-92
2022/03/21 08:55:32;;;;;;;;;;;27.30;19.50;;;;;;5045890;28;19913;-90
2022/03/21 08:57:58;;;;;;;;;;;27.40;19.20;;;;;;5062086;28;19924;-91
2022/03/21 09:00:23;;;;;;;;;;;27.40;19.50;;;;;;5062828;28;19927;-91
2022/03/21 09:02:49;;;;;;;;;;;27.50;19.60;;;;;;5062570;28;19916;-89
2022/03/21 09:05:14;;;;;;;;;;;27.70;19.70;;;;;;5043672;28;19920;-93
2022/03/21 09:07:41;;;;;;;;;;;27.90;19.50;;;;;;5044412;28;19924;-92
2022/03/21 09:10:07;;;;;;;;;;;28.10;19.20;;;;;;5042889;28;20344;-92
2022/03/21 09:12:34;;;;;;;;;;;28.30;18.80;;;;;;5061698;28;19917;-91
2022/03/21 09:14:59;;;;;;;;;;;28.50;18.80;;;;;;5033758;28;19917;-90
2022/03/21 09:17:26;;;;;;;;;;;28.60;18.20;;;;;;5063121;28;20261;-91
2022/03/21 09:19:52;;;;;;;;;;;28.70;18.30;;;;;;5063226;28;19932;-92
2022/03/21 09:22:18;;;;;;;;;;;28.80;18.20;;;;;;5064402;28;19917;-91
2022/03/21 09:24:43;;;;;;;;;;;28.90;18.20;;;;;;5063189;28;19923;-92
2022/03/21 09:27:10;;;;;;;;;;;29.10;18.00;;;;;;5079957;28;19959;-91
2022/03/21 09:29:36;;;;;;;;;;;29.30;17.80;;;;;;5082817;28;19920;-92
2022/03/21 09:32:01;;;;;;;;;;;29.40;17.50;;;;;;5081864;28;19973;-91
2022/03/21 09:34:28;;;;;;;;;;;29.50;17.40;;;;;;5079810;28;20057;-91
2022/03/21 09:36:54;;;;;;;;;;;29.40;17.30;;;;;;5080007;28;19959;-90
2022/03/21 09:39:20;;;;;;;;;;;29.40;17.60;;;;;;5095849;28;19938;-91
2022/03/21 09:41:46;;;;;;;;;;;29.60;17.70;;;;;;5101061;28;20018;-91
2022/03/21 09:44:12;;;;;;;;;;;29.70;17.60;;;;;;5082241;28;19916;-91
2022/03/21 09:46:39;;;;;;;;;;;29.80;17.20;;;;;;5083636;28;19912;-92
2022/03/21 09:49:06;;;;;;;;;;;29.80;17.30;;;;;;5082054;28;19923;-91
2022/03/21 09:51:32;;;;;;;;;;;30.00;17.30;;;;;;5073062;28;19919;-91
2022/03/21 09:53:58;;;;;;;;;;;30.20;17.40;;;;;;5079656;28;20341;-91
2022/03/21 09:56:24;;;;;;;;;;;30.20;17.10;;;;;;5062650;28;19935;-91
2022/03/21 09:58:49;;;;;;;;;;;30.30;17.30;;;;;;5061855;28;19917;-91
2022/03/21 10:01:16;;;;;;;;;;;30.60;17.20;;;;;;5061648;28;20061;-91
2022/03/21 10:03:42;;;;;;;;;;;30.70;17.00;;;;;;5061951;28;19924;-91
2022/03/21 10:06:40;;;;;;;;;;;30.80;16.70;;;;;;5062498;28;20027;-93
2022/03/21 10:09:12;;;;;;;;;;;30.90;17.10;;;;;;5026452;28;20392;-93
2022/03/21 10:11:39;;;;;;;;;;;31.10;16.70;;;;;;5061766;28;19908;-90
2022/03/21 10:14:23;;;;;;;;;;;31.10;16.80;;;;;;5061077;28;20364;-89
2022/03/21 10:16:51;;;;;;;;;;;31.20;16.40;;;;;;5062167;28;20012;-91
2022/03/21 10:19:16;;;;;;;;;;;31.20;16.30;;;;;;5059851;28;19923;-91
2022/03/21 10:21:58;;;;;;;;;;;31.30;16.60;;;;;;5079311;28;19920;-91
2022/03/21 10:24:23;;;;;;;;;;;31.50;16.20;;;;;;5061987;28;19912;-92
2022/03/21 10:26:49;;;;;;;;;;;31.80;16.60;;;;;;5061748;28;20008;-90
2022/03/21 10:29:15;;;;;;;;;;;31.80;15.90;;;;;;5059759;28;19912;-91
2022/03/21 10:31:46;;;;;;;;;;;31.80;15.90;;;;;;5045153;28;20287;-90
2022/03/21 10:34:16;;;;;;;;;;;31.90;16.00;;;;;;5079719;28;19913;-90
2022/03/21 10:37:00;;;;;;;;;;;32.10;16.00;;;;;;5061822;28;19917;-90
2022/03/21 10:39:26;;;;;;;;;;;32.20;16.00;;;;;;5061792;28;20375;-92
2022/03/21 10:41:56;;;;;;;;;;;32.10;15.10;;;;;;5078938;28;20383;-91
2022/03/21 10:44:22;;;;;;;;;;;31.90;15.40;;;;;;5073920;28;19919;-90
2022/03/21 10:46:52;;;;;;;;;;;31.80;15.70;;;;;;5099524;28;20030;-91
2022/03/21 10:49:25;;;;;;;;;;;31.80;15.60;;;;;;5082533;28;19912;-90
2022/03/21 10:51:53;;;;;;;;;;;31.70;15.50;;;;;;5099970;28;19917;-91
2022/03/21 10:54:38;;;;;;;;;;;31.60;15.80;;;;;;5098403;28;19912;-91
2022/03/21 10:57:04;;;;;;;;;;;31.50;16.00;;;;;;5079573;28;20019;-93
2022/03/21 10:59:31;;;;;;;;;;;31.50;16.30;;;;;;5081207;28;19921;-93
2022/03/21 11:02:13;;;;;;;;;;;31.60;16.00;;;;;;5078565;28;19917;-91
2022/03/21 11:04:41;;;;;;;;;;;31.70;16.30;;;;;;5063986;28;19916;-91
2022/03/21 11:07:11;;;;;;;;;;;31.90;16.10;;;;;;5044205;28;19916;-90
2022/03/21 11:09:39;;;;;;;;;;;31.90;16.00;;;;;;5045692;28;20008;-91
2022/03/21 11:12:07;;;;;;;;;;;32.10;16.20;;;;;;5061704;28;19962;-92
2022/03/21 11:14:34;;;;;;;;;;;32.20;15.80;;;;;;5062731;28;20371;-90
2022/03/21 11:17:00;;;;;;;;;;;32.10;15.80;;;;;;5081205;28;19912;-93
2022/03/21 11:19:27;;;;;;;;;;;32.20;15.50;;;;;;5063654;28;19931;-95
2022/03/21 11:21:54;;;;;;;;;;;32.20;15.40;;;;;;5063079;28;19924;-92
2022/03/21 11:24:20;;;;;;;;;;;32.10;15.50;;;;;;5081659;28;20045;-93
2022/03/21 11:26:45;;;;;;;;;;;32.00;15.50;;;;;;5063898;28;19943;-92
2022/03/21 11:29:36;;;;;;;;;;;31.90;15.50;;;;;;5061992;28;19950;-92
2022/03/21 11:32:10;;;;;;;;;;;31.90;15.50;;;;;;5062461;28;19912;-91
2022/03/21 11:34:55;;;;;;;;;;;31.80;15.90;;;;;;5061403;28;19912;-94
2022/03/21 11:37:24;;;;;;;;;;;31.90;15.80;;;;;;5062757;28;19919;-93
2022/03/21 11:39:50;;;;;;;;;;;31.90;15.70;;;;;;5062555;28;19921;-91
2022/03/21 11:42:26;;;;;;;;;;;31.90;16.00;;;;;;5062157;28;19912;-90
2022/03/21 11:45:10;;;;;;;;;;;32.10;16.00;;;;;;5060836;28;19913;-92
2022/03/21 11:47:36;;;;;;;;;;;32.10;15.50;;;;;;5079648;28;19916;-91
2022/03/21 11:50:21;;;;;;;;;;;32.00;15.60;;;;;;5062874;28;19966;-92
2022/03/21 11:53:03;;;;;;;;;;;32.00;15.90;;;;;;5079507;28;19958;-90
2022/03/21 11:55:35;;;;;;;;;;;32.00;15.70;;;;;;5061812;28;20324;-92
2022/03/21 11:58:20;;;;;;;;;;;31.90;15.70;;;;;;5064323;28;20246;-93
2022/03/21 12:01:04;;;;;;;;;;;32.00;15.70;;;;;;5064771;28;19932;-91
2022/03/21 12:03:32;;;;;;;;;;;31.80;15.60;;;;;;5065034;28;21258;-90
2022/03/21 12:05:59;;;;;;;;;;;31.70;15.90;;;;;;5065290;28;19912;-92
2022/03/21 12:08:30;;;;;;;;;;;31.80;16.20;;;;;;5045759;28;19920;-92
2022/03/21 12:10:56;;;;;;;;;;;31.80;15.90;;;;;;5090589;28;19916;-91
2022/03/21 12:13:21;;;;;;;;;;;31.70;15.80;;;;;;5065551;28;19992;-92
2022/03/21 12:15:51;;;;;;;;;;;31.40;16.00;;;;;;5064984;28;19912;-91
2022/03/21 12:18:16;;;;;;;;;;;31.60;16.30;;;;;;5067918;28;19951;-91
2022/03/21 12:20:51;;;;;;;;;;;31.70;16.00;;;;;;5084281;28;19924;-93
2022/03/21 12:23:21;;;;;;;;;;;31.80;16.20;;;;;;5084447;28;19943;-92
2022/03/21 12:25:51;;;;;;;;;;;31.90;16.10;;;;;;5067723;28;19924;-90
2022/03/21 12:28:16;;;;;;;;;;;31.90;16.10;;;;;;5050632;28;19925;-92
2022/03/21 12:30:42;;;;;;;;;;;31.90;16.00;;;;;;5068371;28;19920;-94
2022/03/21 12:33:13;;;;;;;;;;;31.90;16.40;;;;;;5068590;28;19916;-93
2022/03/21 12:35:43;;;;;;;;;;;32.00;16.30;;;;;;5067224;28;19995;-92
2022/03/21 12:38:21;;;;;;;;;;;32.00;16.50;;;;;;5067663;28;19974;-92
2022/03/21 12:41:02;;;;;;;;;;;32.00;16.40;;;;;;5084339;28;19920;-93
2022/03/21 12:43:27;;;;;;;;;;;32.10;16.40;;;;;;5065771;28;19917;-91
2022/03/21 12:45:56;;;;;;;;;;;32.00;16.00;;;;;;5066554;28;19923;-93
2022/03/21 12:48:28;;;;;;;;;;;31.60;16.10;;;;;;5066404;28;20399;-93
2022/03/21 12:50:54;;;;;;;;;;;31.00;16.40;;;;;;5048931;28;20689;-92
2022/03/21 12:53:20;;;;;;;;;;;30.60;16.60;;;;;;5077717;28;19921;-91
2022/03/21 12:55:46;;;;;;;;;;;30.20;17.00;;;;;;5064713;28;19913;-92
2022/03/21 12:58:15;;;;;;;;;;;29.80;17.20;;;;;;5064591;28;20038;-90
2022/03/21 13:00:41;;;;;;;;;;;29.70;17.40;;;;;;5066059;28;20011;-90
2022/03/21 13:03:08;;;;;;;;;;;29.70;17.40;;;;;;5064092;28;19937;-91
2022/03/21 13:11:25;;;;;;;;;;;29.50;17.70;;;;;;5065913;28;20395;-92
2022/03/21 13:13:55;;;;;;;;;;;29.50;17.80;;;;;;5083430;28;19920;-91
2022/03/21 13:16:21;;;;;;;;;;;29.50;17.90;;;;;;5064612;28;20415;-92
2022/03/21 13:18:47;;;;;;;;;;;29.50;17.90;;;;;;5083209;28;19916;-92
2022/03/21 13:21:13;;;;;;;;;;;29.50;17.80;;;;;;5065608;28;19913;-91
2022/03/21 13:23:43;;;;;;;;;;;29.50;17.90;;;;;;5065208;28;19935;-91
2022/03/21 13:26:10;;;;;;;;;;;29.40;18.10;;;;;;5066348;28;19908;-91
2022/03/21 13:28:38;;;;;;;;;;;29.30;18.10;;;;;;5066954;28;19917;-92
2022/03/21 13:31:09;;;;;;;;;;;29.20;18.20;;;;;;5049825;28;19916;-91
2022/03/21 13:33:35;;;;;;;;;;;28.90;18.30;;;;;;5064945;28;19916;-92
2022/03/21 13:36:02;;;;;;;;;;;28.50;18.60;;;;;;5083744;28;19908;-92
2022/03/21 13:38:29;;;;;;;;;;;28.00;18.80;;;;;;5065785;28;19924;-93
2022/03/21 13:40:55;;;;;;;;;;;27.50;19.10;;;;;;5065179;28;20625;-93
2022/03/21 13:43:28;;;;;;;;;;;27.10;19.40;;;;;;5064371;28;19912;-93
2022/03/21 13:46:00;;;;;;;;;;;26.70;19.70;;;;;;5064140;28;19920;-91
2022/03/21 13:48:33;;;;;;;;;;;26.40;20.10;;;;;;5063285;28;19912;-92
2022/03/21 13:51:10;;;;;;;;;;;26.20;20.60;;;;;;5081387;28;19912;-91
2022/03/21 13:53:39;;;;;;;;;;;25.90;20.80;;;;;;5062978;28;20360;-91
2022/03/21 13:56:05;;;;;;;;;;;25.70;21.00;;;;;;5065014;28;19913;-93
2022/03/21 13:58:31;;;;;;;;;;;25.50;21.10;;;;;;5081615;28;20005;-92
2022/03/21 14:00:57;;;;;;;;;;;25.40;21.50;;;;;;5062190;28;19925;-92
2022/03/21 14:03:34;;;;;;;;;;;25.30;21.60;;;;;;5080355;28;19916;-91
2022/03/21 14:06:00;;;;;;;;;;;25.10;21.80;;;;;;5080981;28;19923;-92
2022/03/21 14:08:26;;;;;;;;;;;24.90;21.80;;;;;;5059424;28;20280;-91
2022/03/21 14:11:00;;;;;;;;;;;24.80;22.10;;;;;;5077007;28;19913;-92
2022/03/21 14:13:26;;;;;;;;;;;24.70;22.40;;;;;;5094779;28;19912;-91
2022/03/21 14:15:53;;;;;;;;;;;24.70;22.50;;;;;;5080926;28;19912;-92
2022/03/21 14:18:22;;;;;;;;;;;24.60;22.50;;;;;;5062180;28;19943;-91
2022/03/21 14:20:48;;;;;;;;;;;24.50;22.70;;;;;;5061833;28;19921;-90
2022/03/21 14:23:13;;;;;;;;;;;24.50;22.90;;;;;;5079095;28;19931;-91
2022/03/21 14:28:23;;;;;;;;;;;24.40;23.10;;;;;;5087405;28;19919;-90
2022/03/21 14:30:49;;;;;;;;;;;24.40;23.20;;;;;;5098877;28;19912;-92
2022/03/21 14:33:15;;;;;;;;;;;24.30;23.20;;;;;;5084035;28;20286;-91
2022/03/21 14:35:41;;;;;;;;;;;24.20;23.30;;;;;;5076929;28;20000;-89
2022/03/21 14:38:06;;;;;;;;;;;24.20;23.40;;;;;;5079355;28;19912;-90
2022/03/21 14:40:32;;;;;;;;;;;24.20;23.40;;;;;;5061665;28;20429;-91
2022/03/21 14:42:58;;;;;;;;;;;24.10;23.40;;;;;;5060074;28;19917;-90
2022/03/21 14:45:24;;;;;;;;;;;24.10;23.50;;;;;;5077179;28;19916;-90